Time;durP1;ratioP1;P1;durP2;ratioP2;P2;SDS_P1;SDS_P2;PMS_P1;PMS_P2;Temp;Humidity;BMP_temperature;BMP_pressure;BME280_temperature;BME280_humidity;BME280_pressure;Samples;Min_cycle;Max_cycle;Signal;HPM_P1;HPM_P2
2021/10/26 00:02:01;;;;;;;17.67;10.20;;;;;;;7.60;63.68;102824.28;6122619;23;20191;-63
2021/10/26 00:04:26;;;;;;;15.67;10.97;;;;;;;7.39;64.42;102820.22;6122776;23;20161;-63
2021/10/26 00:06:52;;;;;;;16.63;9.93;;;;;;;7.18;64.71;102772.81;6122289;23;20209;-63
2021/10/26 00:09:17;;;;;;;14.47;9.67;;;;;;;6.97;64.37;102753.78;6122143;23;20162;-63
2021/10/26 00:11:44;;;;;;;12.63;9.60;;;;;;;7.35;64.78;102811.03;6122369;23;20151;-63
2021/10/26 00:14:10;;;;;;;13.07;9.57;;;;;;;7.24;64.75;102787.94;6122487;23;20160;-63
2021/10/26 00:16:36;;;;;;;15.70;11.43;;;;;;;7.06;63.03;102787.50;6122220;23;20161;-63
2021/10/26 00:19:01;;;;;;;20.57;13.17;;;;;;;7.07;63.24;102808.38;6096426;23;20624;-63
2021/10/26 00:21:27;;;;;;;16.37;11.00;;;;;;;6.93;63.87;102810.00;6096549;23;20210;-63
2021/10/26 00:23:52;;;;;;;18.10;11.93;;;;;;;6.98;63.32;102810.50;6122476;23;20617;-63
2021/10/26 00:26:18;;;;;;;16.60;11.70;;;;;;;6.94;63.43;102801.38;6096030;23;20623;-63
2021/10/26 00:28:43;;;;;;;19.37;11.23;;;;;;;6.79;63.26;102790.31;6122197;23;20157;-63
2021/10/26 00:31:09;;;;;;;16.90;11.17;;;;;;;6.78;63.86;102800.56;6121871;23;20154;-63
2021/10/26 00:33:35;;;;;;;16.57;12.00;;;;;;;6.44;64.28;102776.41;6122063;23;20210;-63
2021/10/26 00:36:01;;;;;;;22.30;11.57;;;;;;;6.60;64.58;102795.72;6121838;23;20171;-63
2021/10/26 00:38:26;;;;;;;17.67;11.20;;;;;;;6.58;64.49;102790.59;6121869;23;20563;-62
2021/10/26 00:40:52;;;;;;;21.60;11.80;;;;;;;6.46;65.04;102789.84;6122086;23;20184;-63
2021/10/26 00:43:18;;;;;;;21.30;13.33;;;;;;;6.30;65.22;102772.50;6122112;23;20157;-63
2021/10/26 00:45:43;;;;;;;21.67;12.53;;;;;;;6.31;65.09;102785.88;6121865;23;20501;-63
2021/10/26 00:48:09;;;;;;;22.23;13.00;;;;;;;6.01;65.14;102737.06;6096003;23;20666;-63
2021/10/26 00:50:35;;;;;;;20.63;12.37;;;;;;;6.27;65.00;102784.19;6121673;23;20165;-63
2021/10/26 00:53:01;;;;;;;17.30;11.40;;;;;;;6.27;65.66;102786.94;6122456;23;20157;-62
2021/10/26 00:55:27;;;;;;;21.10;12.30;;;;;;;5.41;65.03;102646.47;6121815;23;20158;-63
2021/10/26 00:57:53;;;;;;;26.77;13.07;;;;;;;6.10;65.98;102779.78;6095938;23;20180;-63
2021/10/26 01:00:20;;;;;;;19.50;11.33;;;;;;;6.07;65.31;102771.44;6121187;23;20172;-64
2021/10/26 01:02:46;;;;;;;16.57;10.67;;;;;;;6.08;64.43;102773.03;6122899;23;20268;-63
2021/10/26 01:05:12;;;;;;;16.77;9.30;;;;;;;5.99;64.43;102773.19;6121885;23;20159;-64
2021/10/26 01:07:39;;;;;;;17.53;10.37;;;;;;;5.94;63.93;102762.41;6095595;23;20250;-63
2021/10/26 01:10:07;;;;;;;15.90;10.47;;;;;;;5.88;64.77;102766.56;6121155;23;20157;-63
2021/10/26 01:12:34;;;;;;;16.90;10.80;;;;;;;5.82;63.95;102764.41;6121965;23;20168;-63
2021/10/26 01:15:00;;;;;;;17.90;11.30;;;;;;;5.11;63.64;102665.22;6122163;23;20160;-64
2021/10/26 01:17:25;;;;;;;17.40;11.90;;;;;;;5.61;63.08;102744.50;6121674;23;20157;-63
2021/10/26 01:19:53;;;;;;;19.30;12.87;;;;;;;5.55;62.73;102760.41;6120857;23;20495;-63
2021/10/26 01:22:21;;;;;;;17.77;11.90;;;;;;;4.88;63.15;102669.56;6121800;23;20189;-63
2021/10/26 01:24:47;;;;;;;18.70;11.50;;;;;;;5.33;62.97;102755.44;6122032;23;20652;-63
2021/10/26 01:27:14;;;;;;;19.03;11.87;;;;;;;5.18;63.31;102747.88;6121342;23;20177;-63
2021/10/26 01:29:39;;;;;;;18.13;12.13;;;;;;;5.13;62.68;102736.31;6121489;23;20151;-63
2021/10/26 01:32:08;;;;;;;16.77;12.70;;;;;;;4.81;63.14;102709.75;6121514;23;20201;-64
2021/10/26 01:34:34;;;;;;;16.27;12.63;;;;;;;4.67;63.64;102703.81;6121851;23;20499;-64
2021/10/26 01:37:04;;;;;;;15.23;11.37;;;;;;;4.92;63.57;102754.88;6095555;23;20166;-63
2021/10/26 01:39:30;;;;;;;20.40;11.50;;;;;;;4.82;63.40;102742.38;6121222;23;20151;-63
2021/10/26 01:41:57;;;;;;;15.50;11.00;;;;;;;4.26;63.90;102666.34;6121981;23;20191;-63
2021/10/26 01:44:23;;;;;;;16.40;10.90;;;;;;;4.67;64.10;102745.00;6122143;23;20210;-63
2021/10/26 01:46:50;;;;;;;15.53;10.87;;;;;;;4.60;64.63;102742.00;6121147;23;20586;-63
2021/10/26 01:49:17;;;;;;;18.17;11.33;;;;;;;4.60;65.05;102755.75;6121177;23;20155;-63
2021/10/26 01:51:42;;;;;;;15.93;11.07;;;;;;;4.50;65.38;102736.94;6121391;23;20540;-63
2021/10/26 01:54:08;;;;;;;16.23;10.60;;;;;;;4.23;65.51;102699.16;6121644;23;20586;-64
2021/10/26 01:56:34;;;;;;;16.27;11.37;;;;;;;4.12;65.33;102676.84;6121689;23;20270;-63
2021/10/26 01:58:59;;;;;;;15.30;10.63;;;;;;;4.37;65.48;102721.63;6121210;23;20157;-63
2021/10/26 02:01:25;;;;;;;19.20;11.17;;;;;;;4.46;65.90;102731.34;6120825;23;20261;-63
2021/10/26 02:03:50;;;;;;;19.97;11.50;;;;;;;4.30;66.34;102719.41;6121488;23;20165;-63
2021/10/26 02:06:16;;;;;;;16.80;10.70;;;;;;;4.46;65.97;102727.81;6120922;23;20156;-63
2021/10/26 02:08:42;;;;;;;16.93;10.60;;;;;;;4.45;66.47;102729.75;6121117;23;20189;-63
2021/10/26 02:11:07;;;;;;;16.87;10.43;;;;;;;4.40;65.92;102720.91;6121004;23;20614;-63
2021/10/26 02:13:33;;;;;;;17.33;10.47;;;;;;;4.43;65.47;102733.97;6121621;23;20620;-63
2021/10/26 02:15:59;;;;;;;14.77;10.70;;;;;;;4.05;65.31;102690.31;6120699;23;20159;-63
2021/10/26 02:18:24;;;;;;;15.13;10.37;;;;;;;3.98;65.68;102687.31;6121180;23;20163;-63
2021/10/26 02:20:50;;;;;;;20.80;11.03;;;;;;;4.25;66.26;102733.34;6121109;23;20246;-63
2021/10/26 02:23:16;;;;;;;15.00;9.97;;;;;;;4.20;65.63;102733.56;6121269;23;20186;-63
2021/10/26 02:25:41;;;;;;;17.63;10.97;;;;;;;4.16;65.63;102738.13;6121325;23;20159;-63
2021/10/26 02:28:07;;;;;;;16.30;10.03;;;;;;;4.01;65.69;102732.47;6121087;23;20214;-63
2021/10/26 02:30:32;;;;;;;17.43;9.77;;;;;;;4.03;65.85;102731.00;6120780;23;20178;-63
2021/10/26 02:32:58;;;;;;;15.03;10.17;;;;;;;3.97;65.93;102723.31;6095288;23;20213;-63
2021/10/26 02:35:23;;;;;;;22.50;10.63;;;;;;;3.82;66.32;102713.78;6121087;23;20159;-63
2021/10/26 02:37:49;;;;;;;15.90;10.13;;;;;;;3.77;66.05;102700.28;6121316;23;20234;-63
2021/10/26 02:40:14;;;;;;;23.97;10.50;;;;;;;3.91;65.99;102725.44;6120347;23;20150;-63
2021/10/26 02:42:40;;;;;;;14.67;10.50;;;;;;;3.69;67.29;102703.88;6121406;23;20660;-63
2021/10/26 02:45:07;;;;;;;17.90;10.30;;;;;;;3.91;66.49;102724.66;6095062;23;20169;-63
2021/10/26 02:47:32;;;;;;;15.80;10.57;;;;;;;3.98;66.59;102731.22;6120913;23;20474;-63
2021/10/26 02:49:58;;;;;;;14.87;10.00;;;;;;;3.98;66.82;102716.69;6120361;23;20185;-63
2021/10/26 02:52:23;;;;;;;18.97;11.17;;;;;;;3.87;66.71;102721.81;6121346;23;20146;-63
2021/10/26 02:54:49;;;;;;;16.43;10.67;;;;;;;3.80;66.83;102712.50;6121421;23;20157;-63
2021/10/26 02:57:15;;;;;;;22.00;11.90;;;;;;;3.84;66.83;102714.22;6120795;23;20157;-63
2021/10/26 02:59:40;;;;;;;22.80;11.40;;;;;;;3.52;66.93;102668.38;6120019;23;20174;-63
2021/10/26 03:02:06;;;;;;;16.57;10.70;;;;;;;3.73;67.56;102709.50;6121175;23;20204;-63
2021/10/26 03:04:31;;;;;;;19.23;12.13;;;;;;;3.83;67.53;102712.63;6121882;23;20161;-63
2021/10/26 03:06:57;;;;;;;18.17;10.80;;;;;;;3.81;67.20;102725.91;6120711;23;20222;-63
2021/10/26 03:09:23;;;;;;;18.57;10.87;;;;;;;3.82;66.76;102711.03;6120915;23;20229;-63
2021/10/26 03:11:48;;;;;;;16.17;11.10;;;;;;;3.86;66.68;102717.44;6120538;23;20232;-63
2021/10/26 03:14:14;;;;;;;16.17;11.23;;;;;;;3.87;66.53;102713.56;6121080;23;20159;-63
2021/10/26 03:16:40;;;;;;;16.77;11.50;;;;;;;3.58;66.70;102669.78;6120479;23;20504;-63
2021/10/26 03:19:05;;;;;;;16.57;11.30;;;;;;;3.49;66.20;102663.56;6120635;23;20159;-63
2021/10/26 03:21:33;;;;;;;21.27;10.90;;;;;;;3.84;65.89;102710.69;6120773;23;20151;-63
2021/10/26 03:23:59;;;;;;;17.50;12.00;;;;;;;3.76;66.13;102717.88;6121111;23;20158;-63
2021/10/26 03:26:25;;;;;;;17.83;11.60;;;;;;;3.76;65.58;102723.34;6094973;23;20158;-63
2021/10/26 03:28:50;;;;;;;17.60;11.33;;;;;;;3.71;65.84;102723.56;6122284;23;20165;-63
2021/10/26 03:31:16;;;;;;;18.83;11.73;;;;;;;3.63;65.62;102715.38;6122510;23;20211;-63
2021/10/26 03:33:42;;;;;;;19.47;11.83;;;;;;;3.43;65.42;102686.84;6122748;23;20600;-63
2021/10/26 03:36:07;;;;;;;17.13;11.17;;;;;;;3.37;65.60;102681.88;6122449;23;20154;-63
2021/10/26 03:38:36;;;;;;;16.00;11.13;;;;;;;3.57;65.70;102719.47;6122361;23;20597;-63
2021/10/26 03:41:02;;;;;;;18.47;10.80;;;;;;;3.29;66.00;102682.78;6122436;23;20154;-63
2021/10/26 03:43:28;;;;;;;20.27;11.37;;;;;;;3.12;65.39;102664.50;6122912;23;20592;-63
2021/10/26 03:45:54;;;;;;;14.83;10.60;;;;;;;3.00;65.53;102658.97;6122161;23;20154;-63
2021/10/26 03:48:20;;;;;;;18.87;11.77;;;;;;;3.28;66.16;102716.78;6122438;23;20160;-63
2021/10/26 03:50:46;;;;;;;19.30;12.00;;;;;;;3.36;66.04;102715.91;6122355;23;20179;-63
2021/10/26 03:53:12;;;;;;;19.13;13.03;;;;;;;3.34;67.78;102718.97;6122872;23;20235;-63
2021/10/26 03:55:37;;;;;;;20.33;12.70;;;;;;;3.29;68.81;102710.19;6096165;23;20621;-63
2021/10/26 03:58:09;;;;;;;17.87;11.97;;;;;;;3.34;69.05;102716.25;6122272;23;20151;-63
2021/10/26 04:00:35;;;;;;;22.57;12.87;;;;;;;3.36;70.54;102713.19;6121935;23;20161;-63
2021/10/26 04:03:01;;;;;;;23.10;13.50;;;;;;;3.34;69.38;102716.25;6096559;23;20512;-63
2021/10/26 04:05:42;;;;;;;19.53;13.20;;;;;;;3.27;68.78;102720.66;6122242;23;20183;-63
2021/10/26 04:11:00;;;;;;;28.17;13.10;;;;;;;3.24;70.24;102713.91;6122051;23;20186;-63
2021/10/26 04:13:26;;;;;;;22.77;11.80;;;;;;;3.22;69.69;102718.09;6096772;23;20168;-63
2021/10/26 04:15:54;;;;;;;22.23;12.57;;;;;;;3.24;68.65;102716.63;6122070;23;20556;-63
2021/10/26 04:18:21;;;;;;;19.43;12.20;;;;;;;3.29;70.09;102716.44;6121528;23;20598;-63
2021/10/26 04:20:47;;;;;;;23.33;13.97;;;;;;;3.28;69.26;102714.84;6096182;23;20217;-63
2021/10/26 04:23:12;;;;;;;30.47;17.27;;;;;;;3.31;69.45;102713.38;6122348;23;20237;-63
2021/10/26 04:25:38;;;;;;;22.60;15.23;;;;;;;3.23;69.09;102697.81;6121884;23;20186;-63
2021/10/26 04:28:04;;;;;;;27.40;15.27;;;;;;;3.34;69.36;102712.72;6122134;23;20619;-63
2021/10/26 04:30:33;;;;;;;28.20;18.03;;;;;;;3.45;73.63;102706.47;6121870;23;20541;-63
2021/10/26 04:32:59;;;;;;;30.20;19.63;;;;;;;3.45;70.80;102705.69;6122176;23;20207;-63
2021/10/26 04:35:25;;;;;;;29.83;18.73;;;;;;;3.14;71.15;102662.22;6121909;23;20154;-63
2021/10/26 04:37:52;;;;;;;26.77;18.77;;;;;;;3.50;70.88;102708.25;6122070;23;20158;-63
2021/10/26 04:40:18;;;;;;;33.57;20.10;;;;;;;3.53;71.15;102713.84;6121137;23;20253;-63
2021/10/26 04:42:44;;;;;;;29.67;19.47;;;;;;;3.58;71.16;102712.84;6122328;23;20609;-63
2021/10/26 04:45:10;;;;;;;32.13;21.40;;;;;;;3.58;71.10;102721.88;6122543;23;20504;-63
2021/10/26 04:47:35;;;;;;;32.57;20.83;;;;;;;3.48;71.23;102705.00;6121920;23;20154;-63
2021/10/26 04:50:01;;;;;;;34.57;21.73;;;;;;;3.42;71.69;102685.25;6121271;23;20243;-63
2021/10/26 04:52:26;;;;;;;44.57;25.30;;;;;;;3.69;72.84;102708.56;6122093;23;20178;-63
2021/10/26 04:54:52;;;;;;;39.07;22.30;;;;;;;3.55;71.43;102688.84;6122180;23;20582;-65
2021/10/26 04:57:17;;;;;;;35.03;22.70;;;;;;;3.62;70.35;102689.09;6121700;23;20166;-68
2021/10/26 04:59:43;;;;;;;36.30;23.50;;;;;;;3.60;70.14;102694.13;6116746;23;20158;-65
2021/10/26 05:02:08;;;;;;;36.43;21.60;;;;;;;3.62;69.22;102709.13;6082971;23;20241;-65
2021/10/26 05:04:34;;;;;;;35.23;20.47;;;;;;;3.65;69.98;102702.16;6118046;23;20155;-65
2021/10/26 05:06:59;;;;;;;38.60;21.50;;;;;;;3.79;69.81;102706.22;6111510;23;20213;-65
2021/10/26 05:09:25;;;;;;;33.83;19.50;;;;;;;3.73;68.47;102717.72;6110968;23;20237;-65
2021/10/26 05:11:51;;;;;;;33.70;19.90;;;;;;;3.61;69.91;102696.53;6114036;23;20885;-65
2021/10/26 05:14:16;;;;;;;26.37;18.03;;;;;;;3.65;68.37;102713.91;6087923;23;20624;-65
2021/10/26 05:16:46;;;;;;;28.40;17.97;;;;;;;3.29;68.56;102656.16;6117951;23;20166;-65
2021/10/26 05:19:12;;;;;;;25.00;15.90;;;;;;;3.63;67.18;102710.72;6117132;23;20200;-65
2021/10/26 05:21:38;;;;;;;27.57;15.23;;;;;;;3.47;67.52;102681.47;6118518;23;20155;-65
2021/10/26 05:24:04;;;;;;;23.23;15.17;;;;;;;3.72;67.11;102713.38;6120018;23;20478;-65
2021/10/26 05:26:33;;;;;;;29.53;15.53;;;;;;;3.41;67.78;102666.38;6120165;23;20151;-65
2021/10/26 05:28:59;;;;;;;24.87;15.47;;;;;;;3.71;66.92;102720.81;6120001;23;20178;-65
2021/10/26 05:31:24;;;;;;;29.40;15.50;;;;;;;3.73;67.49;102726.75;6094164;23;20225;-65
2021/10/26 05:33:50;;;;;;;32.30;15.60;;;;;;;3.59;66.01;102709.78;6119165;23;20253;-65
2021/10/26 05:36:16;;;;;;;44.83;16.90;;;;;;;3.49;66.58;102704.69;6119506;23;20165;-65
2021/10/26 05:38:42;;;;;;;28.30;15.90;;;;;;;3.71;66.18;102744.69;6120035;23;20540;-65
2021/10/26 05:41:09;;;;;;;31.20;16.87;;;;;;;3.70;66.50;102746.63;6119124;23;20560;-65
2021/10/26 05:43:35;;;;;;;26.87;16.87;;;;;;;3.46;66.24;102707.28;6118956;23;20601;-65
2021/10/26 05:46:00;;;;;;;40.37;20.20;;;;;;;3.73;66.48;102745.94;6119546;23;20154;-63
2021/10/26 05:48:26;;;;;;;31.60;20.83;;;;;;;3.74;66.00;102752.25;6119357;23;20165;-64
2021/10/26 05:50:51;;;;;;;30.80;20.10;;;;;;;3.16;66.27;102659.97;6118983;23;20995;-63
2021/10/26 05:53:17;;;;;;;35.03;24.33;;;;;;;3.69;66.68;102752.44;6118614;23;20154;-62
2021/10/26 05:55:43;;;;;;;38.33;20.90;;;;;;;3.72;66.36;102751.78;6091945;23;20650;-63
2021/10/26 05:58:11;;;;;;;35.43;18.80;;;;;;;3.74;66.09;102750.28;6119262;23;20230;-63
2021/10/26 06:00:38;;;;;;;25.97;17.10;;;;;;;3.77;66.41;102755.13;6119368;23;20233;-62
2021/10/26 06:03:04;;;;;;;22.67;15.23;;;;;;;3.78;67.87;102786.88;6113991;23;20234;-65
2021/10/26 06:05:30;;;;;;;25.33;15.77;;;;;;;3.65;67.23;102749.56;6119062;23;20578;-65
2021/10/26 06:07:56;;;;;;;27.93;16.27;;;;;;;3.87;66.91;102762.13;6110674;23;20174;-64
2021/10/26 06:10:21;;;;;;;23.67;15.63;;;;;;;3.94;66.53;102757.72;6092589;23;20162;-63
2021/10/26 06:12:57;;;;;;;29.10;16.70;;;;;;;3.88;66.49;102744.53;6092498;23;20173;-62
2021/10/26 06:15:23;;;;;;;29.93;16.33;;;;;;;4.06;66.28;102763.25;6093026;23;20240;-62
2021/10/26 06:17:48;;;;;;;28.03;16.50;;;;;;;4.09;66.92;102759.03;6118781;23;20158;-62
2021/10/26 06:20:14;;;;;;;33.17;21.10;;;;;;;4.12;67.45;102761.91;6118664;23;20183;-61
2021/10/26 06:22:40;;;;;;;37.30;24.87;;;;;;;3.87;69.13;102708.09;6118686;23;20157;-61
2021/10/26 06:25:06;;;;;;;35.73;20.27;;;;;;;4.02;70.30;102721.19;6118684;23;20181;-61
2021/10/26 06:27:32;;;;;;;39.47;20.80;;;;;;;4.40;68.18;102762.91;6119400;23;20604;-61
2021/10/26 06:30:00;;;;;;;37.43;23.33;;;;;;;4.27;68.62;102735.78;6118514;23;20157;-61
2021/10/26 06:32:26;;;;;;;34.17;21.37;;;;;;;4.38;69.45;102728.69;6117019;23;20252;-61
2021/10/26 06:34:51;;;;;;;41.57;25.43;;;;;;;4.72;69.06;102764.81;6119294;23;20266;-61
2021/10/26 06:37:17;;;;;;;41.03;27.70;;;;;;;4.43;68.22;102714.75;6119130;23;20630;-62
2021/10/26 06:39:42;;;;;;;52.20;34.27;;;;;;;4.50;67.79;102736.94;6119227;23;20158;-62
2021/10/26 06:42:08;;;;;;;54.77;33.60;;;;;;;4.57;68.07;102718.78;6118975;23;20570;-62
2021/10/26 06:44:34;;;;;;;59.83;36.00;;;;;;;4.80;68.34;102760.34;6119128;23;20156;-62
2021/10/26 06:46:59;;;;;;;55.47;36.20;;;;;;;5.04;69.22;102771.38;6118740;23;20239;-62
2021/10/26 06:49:25;;;;;;;47.13;34.03;;;;;;;5.22;68.73;102772.72;6118763;23;20220;-62
2021/10/26 06:51:50;;;;;;;49.57;31.87;;;;;;;5.43;69.03;102778.91;6111989;23;20679;-63
2021/10/26 06:54:16;;;;;;;63.20;40.27;;;;;;;5.62;68.12;102784.59;6118852;23;20708;-62
2021/10/26 06:56:42;;;;;;;70.27;44.87;;;;;;;5.74;67.69;102774.38;6117756;23;20702;-63
2021/10/26 06:59:07;;;;;;;55.30;37.67;;;;;;;5.79;68.25;102776.88;6118978;23;20157;-63
2021/10/26 07:01:33;;;;;;;58.00;37.30;;;;;;;5.98;68.11;102788.09;6117856;23;20152;-62
2021/10/26 07:03:58;;;;;;;55.80;33.33;;;;;;;6.12;67.92;102787.69;6094806;23;20255;-63
2021/10/26 07:06:24;;;;;;;52.83;32.43;;;;;;;6.31;67.50;102782.34;6120790;23;20690;-64
2021/10/26 07:08:49;;;;;;;51.57;30.40;;;;;;;6.39;67.16;102764.84;6116460;23;20157;-63
2021/10/26 07:11:15;;;;;;;54.00;30.27;;;;;;;6.60;65.76;102781.94;6094522;23;20248;-63
2021/10/26 07:13:40;;;;;;;43.83;27.47;;;;;;;6.27;65.18;102729.94;6120613;23;20153;-63
2021/10/26 07:16:07;;;;;;;41.53;27.00;;;;;;;6.61;64.77;102778.06;6120038;23;20490;-62
2021/10/26 07:18:33;;;;;;;39.63;25.23;;;;;;;6.64;65.72;102756.09;6121041;23;20161;-63
2021/10/26 07:20:59;;;;;;;42.93;25.63;;;;;;;6.98;65.29;102782.16;6118896;23;20168;-62
2021/10/26 07:23:24;;;;;;;34.73;23.70;;;;;;;7.01;65.76;102762.13;6119788;23;20224;-62
2021/10/26 07:25:50;;;;;;;35.93;23.77;;;;;;;7.05;64.44;102768.53;6120236;23;20157;-62
2021/10/26 07:28:16;;;;;;;35.60;23.50;;;;;;;6.90;64.52;102748.09;6121039;23;20543;-63
2021/10/26 07:30:44;;;;;;;33.83;24.17;;;;;;;6.99;64.66;102772.72;6119754;23;20185;-63
2021/10/26 07:33:24;;;;;;;35.17;24.00;;;;;;;7.22;63.75;102766.22;6093478;23;20296;-62
2021/10/26 07:35:52;;;;;;;38.30;24.03;;;;;;;7.42;64.20;102756.03;6120588;23;20162;-62
2021/10/26 07:38:33;;;;;;;37.93;23.60;;;;;;;7.59;64.35;102761.94;6119263;23;20154;-62
2021/10/26 07:41:00;;;;;;;32.10;22.77;;;;;;;7.94;63.23;102759.16;6120904;23;20150;-62
2021/10/26 07:43:26;;;;;;;31.60;22.03;;;;;;;7.89;62.50;102713.31;6119826;23;20676;-63
2021/10/26 07:45:52;;;;;;;28.50;20.37;;;;;;;8.29;62.30;102759.88;6119773;23;20185;-62
2021/10/26 07:48:18;;;;;;;20.63;15.87;;;;;;;8.48;61.01;102759.84;6120489;23;20155;-62
2021/10/26 07:50:45;;;;;;;21.73;15.33;;;;;;;8.78;60.78;102755.28;6119894;23;20183;-62
2021/10/26 07:53:12;;;;;;;22.37;15.17;;;;;;;9.02;60.77;102758.44;6120167;23;20501;-63
2021/10/26 07:55:37;;;;;;;19.20;15.00;;;;;;;9.11;59.03;102750.69;6121013;23;20583;-63
2021/10/26 07:58:04;;;;;;;19.73;14.87;;;;;;;9.01;59.46;102761.56;6119653;23;20213;-63
2021/10/26 08:00:29;;;;;;;21.43;15.30;;;;;;;9.29;59.30;102754.56;6094863;23;20170;-63
2021/10/26 08:02:55;;;;;;;21.93;15.67;;;;;;;9.05;58.43;102720.94;6120196;23;20179;-63
2021/10/26 08:05:21;;;;;;;19.30;15.00;;;;;;;9.24;58.20;102751.28;6120112;23;20163;-63
2021/10/26 08:07:47;;;;;;;18.73;14.47;;;;;;;9.28;58.31;102707.88;6120108;23;20217;-63
2021/10/26 08:10:12;;;;;;;23.03;14.67;;;;;;;9.67;57.85;102734.91;6120314;23;20162;-63
2021/10/26 08:12:38;;;;;;;20.23;15.33;;;;;;;9.94;57.14;102753.06;6119232;23;20183;-63
2021/10/26 08:15:04;;;;;;;17.13;13.93;;;;;;;9.74;56.81;102754.38;6119430;23;20156;-63
2021/10/26 08:17:29;;;;;;;21.03;15.07;;;;;;;9.52;57.46;102755.28;6119934;23;20155;-63
2021/10/26 08:19:55;;;;;;;18.03;14.80;;;;;;;9.17;58.21;102753.97;6119953;23;20164;-63
2021/10/26 08:22:22;;;;;;;19.10;15.30;;;;;;;9.39;58.12;102745.56;6119463;23;20434;-63
2021/10/26 08:24:51;;;;;;;23.17;15.93;;;;;;;9.79;57.79;102747.72;6119771;23;20187;-62
2021/10/26 08:27:19;;;;;;;18.90;14.60;;;;;;;10.01;57.03;102744.03;6092981;23;20558;-62
2021/10/26 08:30:07;;;;;;;19.27;14.80;;;;;;;10.33;57.11;102748.81;6120157;23;20243;-62
2021/10/26 08:38:05;;;;;;;19.90;14.73;;;;;;;10.38;56.02;102733.81;6119148;23;20152;-64
2021/10/26 08:40:32;;;;;;;19.00;14.57;;;;;;;10.46;55.53;102735.47;6119586;23;20141;-64
2021/10/26 08:43:02;;;;;;;17.63;13.83;;;;;;;10.47;56.02;102737.06;6119761;23;20559;-64
2021/10/26 08:45:28;;;;;;;18.70;14.57;;;;;;;10.52;56.62;102731.19;6120213;23;20595;-65
2021/10/26 08:47:54;;;;;;;20.27;14.67;;;;;;;10.52;56.24;102732.00;6118643;23;20166;-65
2021/10/26 08:50:20;;;;;;;18.47;15.30;;;;;;;10.26;56.45;102723.78;6120138;23;20154;-67
2021/10/26 08:52:48;;;;;;;19.23;14.73;;;;;;;10.29;56.91;102728.56;6119592;23;20241;-67
2021/10/26 08:55:17;;;;;;;26.23;19.00;;;;;;;10.44;56.76;102724.78;6119250;23;20606;-66
2021/10/26 08:57:43;;;;;;;21.43;15.50;;;;;;;10.40;56.75;102721.16;6118796;23;20232;-67
2021/10/26 09:00:09;;;;;;;20.60;14.93;;;;;;;10.64;56.55;102726.16;6119779;23;20240;-67
2021/10/26 09:02:47;;;;;;;22.00;15.53;;;;;;;10.92;55.96;102728.38;6119015;23;20255;-65
2021/10/26 09:05:18;;;;;;;17.87;14.43;;;;;;;10.88;55.59;102725.59;6119736;23;20150;-65
2021/10/26 09:08:05;;;;;;;19.73;14.97;;;;;;;10.93;55.04;102716.91;6119710;23;20597;-62
2021/10/26 09:10:32;;;;;;;21.77;15.20;;;;;;;10.77;55.25;102721.91;6093433;23;20161;-63
2021/10/26 09:18:54;;;;;;;20.90;14.93;;;;;;;10.59;56.24;102709.88;6119400;23;20146;-61
2021/10/26 09:21:32;;;;;;;21.03;15.30;;;;;;;10.68;55.84;102692.91;6118911;23;20179;-63
2021/10/26 09:24:00;;;;;;;19.13;15.40;;;;;;;10.87;56.27;102701.00;6119734;23;20157;-64
2021/10/26 09:26:43;;;;;;;20.43;15.43;;;;;;;10.74;55.96;102680.28;6118533;23;20157;-63
2021/10/26 09:29:09;;;;;;;19.87;14.83;;;;;;;10.75;56.76;102704.03;6119767;23;20687;-64
2021/10/26 09:31:38;;;;;;;18.60;14.03;;;;;;;10.73;56.29;102676.72;6118924;23;20295;-64
2021/10/26 09:34:07;;;;;;;17.53;14.17;;;;;;;11.16;56.21;102691.66;6119476;23;20183;-60
2021/10/26 09:36:37;;;;;;;17.47;13.90;;;;;;;11.26;55.55;102683.44;6118659;23;20159;-62
2021/10/26 09:39:02;;;;;;;16.50;13.57;;;;;;;11.63;54.90;102678.47;6119238;23;20421;-65
2021/10/26 09:41:28;;;;;;;16.33;13.50;;;;;;;11.90;54.46;102676.22;6119179;23;21000;-68
2021/10/26 09:44:13;;;;;;;18.13;13.20;;;;;;;12.04;53.16;102676.28;6119274;23;20169;-67
2021/10/26 09:46:50;;;;;;;18.00;13.47;;;;;;;12.16;53.13;102673.09;6117828;23;20152;-66
2021/10/26 09:49:39;;;;;;;19.20;13.60;;;;;;;12.11;53.04;102668.75;6119931;23;20145;-66
2021/10/26 09:52:13;;;;;;;15.90;12.90;;;;;;;12.32;53.29;102666.00;6119683;23;20200;-65
2021/10/26 09:54:41;;;;;;;16.17;12.80;;;;;;;12.47;52.81;102662.03;6118786;23;20158;-65
2021/10/26 09:57:09;;;;;;;17.47;13.63;;;;;;;12.46;52.20;102649.31;6118133;23;20151;-67
2021/10/26 09:59:37;;;;;;;19.13;13.33;;;;;;;12.63;52.33;102656.88;6119112;23;20620;-67
2021/10/26 10:02:03;;;;;;;16.00;13.80;;;;;;;12.56;52.26;102659.63;6119309;23;20493;-64
2021/10/26 10:04:31;;;;;;;19.30;13.43;;;;;;;12.71;51.68;102647.31;6118904;23;20155;-66
2021/10/26 10:06:56;;;;;;;16.83;13.07;;;;;;;12.49;52.40;102633.81;6118747;23;20154;-66
2021/10/26 10:09:25;;;;;;;17.77;13.40;;;;;;;12.83;52.28;102646.94;6093205;23;20627;-66
2021/10/26 10:11:58;;;;;;;16.70;13.10;;;;;;;12.93;51.78;102637.78;6119326;23;20183;-66
2021/10/26 10:14:23;;;;;;;19.13;13.23;;;;;;;12.78;51.85;102599.22;6119113;23;20151;-66
2021/10/26 10:16:54;;;;;;;17.20;12.80;;;;;;;13.08;51.49;102630.22;6118696;23;20167;-67
2021/10/26 10:19:20;;;;;;;18.50;13.27;;;;;;;12.88;51.21;102593.66;6118478;23;20158;-67
2021/10/26 10:21:47;;;;;;;14.13;12.20;;;;;;;13.14;51.46;102614.69;6118253;23;20156;-67
2021/10/26 10:24:18;;;;;;;17.03;12.87;;;;;;;13.21;51.16;102620.25;6118204;23;20159;-67
2021/10/26 10:26:49;;;;;;;16.87;13.30;;;;;;;13.18;50.77;102595.97;6118504;23;20622;-67
2021/10/26 10:29:19;;;;;;;18.70;13.93;;;;;;;13.09;51.56;102590.03;6118872;23;20139;-67
2021/10/26 10:31:46;;;;;;;18.80;13.50;;;;;;;13.09;51.18;102574.13;6119336;23;20188;-66
2021/10/26 10:34:13;;;;;;;21.50;14.70;;;;;;;13.47;49.91;102591.91;6112060;23;20151;-66
2021/10/26 10:36:42;;;;;;;15.63;12.70;;;;;;;13.63;50.34;102598.56;6117544;23;20182;-67
2021/10/26 10:39:10;;;;;;;16.07;13.40;;;;;;;13.53;49.98;102595.84;6118429;23;20161;-67
2021/10/26 10:41:38;;;;;;;15.37;12.43;;;;;;;13.70;50.42;102594.94;6119308;23;20185;-67
2021/10/26 10:44:08;;;;;;;17.47;12.50;;;;;;;13.82;50.47;102584.13;6118375;23;20178;-67
2021/10/26 10:46:55;;;;;;;15.13;12.17;;;;;;;14.01;50.15;102583.63;6118433;23;20155;-67
2021/10/26 10:49:23;;;;;;;15.00;11.07;;;;;;;14.16;49.85;102575.94;6117656;23;20149;-68
2021/10/26 10:52:05;;;;;;;14.23;11.93;;;;;;;14.28;48.97;102572.66;6119161;23;20155;-67
2021/10/26 10:54:41;;;;;;;17.20;13.00;;;;;;;14.19;48.58;102564.78;6092054;23;20170;-67
2021/10/26 10:57:28;;;;;;;14.00;12.50;;;;;;;14.18;48.47;102563.16;6118461;23;20167;-67
2021/10/26 10:59:55;;;;;;;15.60;12.83;;;;;;;14.09;49.12;102525.81;6118663;23;20151;-67
2021/10/26 11:02:23;;;;;;;18.67;14.07;;;;;;;14.44;48.79;102557.00;6117817;23;20180;-67
2021/10/26 11:04:50;;;;;;;18.77;14.63;;;;;;;14.47;48.37;102541.44;6118336;23;20228;-68
2021/10/26 11:07:41;;;;;;;20.20;14.70;;;;;;;14.57;47.24;102552.50;6118157;23;20647;-68
2021/10/26 11:10:08;;;;;;;19.67;15.33;;;;;;;14.62;47.26;102543.69;6092284;23;20223;-68
2021/10/26 11:12:36;;;;;;;23.13;17.37;;;;;;;14.34;47.63;102535.56;6117503;23;20479;-68
2021/10/26 11:15:05;;;;;;;21.83;16.33;;;;;;;14.45;47.94;102549.44;6116911;23;20157;-68
2021/10/26 11:17:33;;;;;;;22.13;16.43;;;;;;;14.54;47.83;102536.56;6118324;23;20217;-68
2021/10/26 11:19:59;;;;;;;21.33;16.53;;;;;;;14.44;47.29;102504.00;6118594;23;20626;-68
2021/10/26 11:22:51;;;;;;;20.27;16.10;;;;;;;14.72;47.33;102523.25;6118627;23;20182;-66
2021/10/26 11:25:22;;;;;;;22.30;16.67;;;;;;;14.62;47.18;102521.34;6118695;23;20166;-68
2021/10/26 11:27:49;;;;;;;25.07;16.30;;;;;;;14.61;46.49;102518.97;6118913;23;20169;-64
2021/10/26 11:30:33;;;;;;;19.20;15.80;;;;;;;14.48;47.66;102527.06;6117633;23;20560;-64